sensor_id;sensor_type;location;lat;lon;timestamp;P1;durP1;ratioP1;P2;durP2;ratioP2
22571;SDS011;11452;53.368;14.658;2023-07-09T00:01:20;4.17;;;2.83;;
22571;SDS011;11452;53.368;14.658;2023-07-09T00:06:26;2.87;;;2.60;;
22571;SDS011;11452;53.368;14.658;2023-07-09T00:11:32;2.73;;;2.53;;
22571;SDS011;11452;53.368;14.658;2023-07-09T00:16:38;2.53;;;2.33;;
22571;SDS011;11452;53.368;14.658;2023-07-09T00:21:45;2.37;;;2.17;;
22571;SDS011;11452;53.368;14.658;2023-07-09T00:26:54;3.23;;;2.57;;
22571;SDS011;11452;53.368;14.658;2023-07-09T00:32:00;3.70;;;2.70;;
22571;SDS011;11452;53.368;14.658;2023-07-09T00:37:19;3.03;;;2.60;;
22571;SDS011;11452;53.368;14.658;2023-07-09T00:42:22;3.00;;;2.80;;
22571;SDS011;11452;53.368;14.658;2023-07-09T00:52:50;2.63;;;2.43;;
22571;SDS011;11452;53.368;14.658;2023-07-09T00:58:00;3.13;;;2.53;;
22571;SDS011;11452;53.368;14.658;2023-07-09T01:03:06;3.03;;;2.83;;
22571;SDS011;11452;53.368;14.658;2023-07-09T01:08:14;2.73;;;2.50;;
22571;SDS011;11452;53.368;14.658;2023-07-09T01:13:20;2.90;;;2.50;;
22571;SDS011;11452;53.368;14.658;2023-07-09T01:18:27;2.80;;;2.27;;
22571;SDS011;11452;53.368;14.658;2023-07-09T01:23:32;2.73;;;2.53;;
22571;SDS011;11452;53.368;14.658;2023-07-09T01:28:39;2.37;;;2.20;;
22571;SDS011;11452;53.368;14.658;2023-07-09T01:33:48;3.40;;;2.60;;
22571;SDS011;11452;53.368;14.658;2023-07-09T01:38:55;3.57;;;2.80;;
22571;SDS011;11452;53.368;14.658;2023-07-09T01:44:01;2.83;;;2.63;;
22571;SDS011;11452;53.368;14.658;2023-07-09T01:49:08;2.53;;;2.33;;
22571;SDS011;11452;53.368;14.658;2023-07-09T01:54:14;4.47;;;2.40;;
22571;SDS011;11452;53.368;14.658;2023-07-09T01:59:20;3.17;;;2.60;;
22571;SDS011;11452;53.368;14.658;2023-07-09T02:04:26;2.87;;;2.63;;
22571;SDS011;11452;53.368;14.658;2023-07-09T02:09:32;2.40;;;2.27;;
22571;SDS011;11452;53.368;14.658;2023-07-09T02:14:38;2.90;;;2.70;;
22571;SDS011;11452;53.368;14.658;2023-07-09T02:19:45;3.30;;;3.00;;
22571;SDS011;11452;53.368;14.658;2023-07-09T02:24:51;2.77;;;2.50;;
22571;SDS011;11452;53.368;14.658;2023-07-09T02:29:58;2.97;;;2.60;;
22571;SDS011;11452;53.368;14.658;2023-07-09T02:35:04;3.03;;;2.73;;
22571;SDS011;11452;53.368;14.658;2023-07-09T02:40:11;3.77;;;2.90;;
22571;SDS011;11452;53.368;14.658;2023-07-09T02:45:18;3.00;;;2.70;;
22571;SDS011;11452;53.368;14.658;2023-07-09T02:50:24;3.00;;;2.70;;
22571;SDS011;11452;53.368;14.658;2023-07-09T02:55:30;4.00;;;2.90;;
22571;SDS011;11452;53.368;14.658;2023-07-09T03:00:38;3.97;;;2.90;;
22571;SDS011;11452;53.368;14.658;2023-07-09T03:05:47;2.80;;;2.60;;
22571;SDS011;11452;53.368;14.658;2023-07-09T03:10:53;5.33;;;2.60;;
22571;SDS011;11452;53.368;14.658;2023-07-09T03:15:59;3.93;;;2.87;;
22571;SDS011;11452;53.368;14.658;2023-07-09T03:21:05;3.50;;;3.20;;
22571;SDS011;11452;53.368;14.658;2023-07-09T03:26:11;3.43;;;3.00;;
22571;SDS011;11452;53.368;14.658;2023-07-09T03:31:17;3.50;;;2.83;;
22571;SDS011;11452;53.368;14.658;2023-07-09T03:36:23;2.90;;;2.70;;
22571;SDS011;11452;53.368;14.658;2023-07-09T03:41:29;4.57;;;2.87;;
22571;SDS011;11452;53.368;14.658;2023-07-09T03:46:35;3.23;;;2.90;;
22571;SDS011;11452;53.368;14.658;2023-07-09T03:51:40;4.60;;;3.13;;
22571;SDS011;11452;53.368;14.658;2023-07-09T03:56:46;3.27;;;2.80;;
22571;SDS011;11452;53.368;14.658;2023-07-09T04:01:52;3.33;;;3.03;;
22571;SDS011;11452;53.368;14.658;2023-07-09T04:06:58;3.77;;;3.00;;
22571;SDS011;11452;53.368;14.658;2023-07-09T04:12:04;3.20;;;2.93;;
22571;SDS011;11452;53.368;14.658;2023-07-09T04:17:10;4.17;;;3.20;;
22571;SDS011;11452;53.368;14.658;2023-07-09T04:22:16;3.37;;;3.10;;
22571;SDS011;11452;53.368;14.658;2023-07-09T04:27:21;3.27;;;2.70;;
22571;SDS011;11452;53.368;14.658;2023-07-09T04:32:29;4.00;;;3.37;;
22571;SDS011;11452;53.368;14.658;2023-07-09T04:37:35;3.47;;;3.17;;
22571;SDS011;11452;53.368;14.658;2023-07-09T04:42:41;4.10;;;3.10;;
22571;SDS011;11452;53.368;14.658;2023-07-09T04:47:47;3.70;;;2.90;;
22571;SDS011;11452;53.368;14.658;2023-07-09T04:52:52;3.17;;;2.87;;
22571;SDS011;11452;53.368;14.658;2023-07-09T04:57:58;3.77;;;2.90;;
22571;SDS011;11452;53.368;14.658;2023-07-09T05:03:04;3.63;;;3.33;;
22571;SDS011;11452;53.368;14.658;2023-07-09T05:08:10;4.53;;;3.20;;
22571;SDS011;11452;53.368;14.658;2023-07-09T05:13:16;5.60;;;2.80;;
22571;SDS011;11452;53.368;14.658;2023-07-09T05:18:22;3.67;;;2.70;;
22571;SDS011;11452;53.368;14.658;2023-07-09T05:23:28;3.67;;;3.37;;
22571;SDS011;11452;53.368;14.658;2023-07-09T05:28:34;3.83;;;3.27;;
22571;SDS011;11452;53.368;14.658;2023-07-09T05:33:40;3.90;;;2.97;;
22571;SDS011;11452;53.368;14.658;2023-07-09T05:38:45;5.03;;;3.50;;
22571;SDS011;11452;53.368;14.658;2023-07-09T05:43:51;3.80;;;3.40;;
22571;SDS011;11452;53.368;14.658;2023-07-09T05:48:57;3.87;;;3.50;;
22571;SDS011;11452;53.368;14.658;2023-07-09T05:54:03;3.80;;;3.40;;
22571;SDS011;11452;53.368;14.658;2023-07-09T05:59:09;4.83;;;3.10;;
22571;SDS011;11452;53.368;14.658;2023-07-09T06:04:15;3.57;;;3.27;;
22571;SDS011;11452;53.368;14.658;2023-07-09T06:09:22;3.27;;;2.97;;
22571;SDS011;11452;53.368;14.658;2023-07-09T06:14:28;5.30;;;3.60;;
22571;SDS011;11452;53.368;14.658;2023-07-09T06:19:33;3.50;;;3.20;;
22571;SDS011;11452;53.368;14.658;2023-07-09T06:24:39;3.70;;;3.30;;
22571;SDS011;11452;53.368;14.658;2023-07-09T06:29:45;4.00;;;3.57;;
22571;SDS011;11452;53.368;14.658;2023-07-09T06:34:51;3.50;;;3.20;;
22571;SDS011;11452;53.368;14.658;2023-07-09T06:39:56;3.57;;;3.27;;
22571;SDS011;11452;53.368;14.658;2023-07-09T06:45:02;6.70;;;3.00;;
22571;SDS011;11452;53.368;14.658;2023-07-09T06:50:08;3.30;;;3.03;;
22571;SDS011;11452;53.368;14.658;2023-07-09T06:55:14;3.27;;;2.97;;
22571;SDS011;11452;53.368;14.658;2023-07-09T07:00:20;3.43;;;2.93;;
22571;SDS011;11452;53.368;14.658;2023-07-09T07:05:26;5.40;;;3.70;;
22571;SDS011;11452;53.368;14.658;2023-07-09T07:10:31;3.47;;;3.13;;
22571;SDS011;11452;53.368;14.658;2023-07-09T07:15:37;3.73;;;3.43;;
22571;SDS011;11452;53.368;14.658;2023-07-09T07:20:43;3.50;;;3.20;;
22571;SDS011;11452;53.368;14.658;2023-07-09T07:25:49;3.70;;;3.27;;
22571;SDS011;11452;53.368;14.658;2023-07-09T07:30:59;3.90;;;3.00;;
22571;SDS011;11452;53.368;14.658;2023-07-09T07:36:10;3.40;;;3.10;;
22571;SDS011;11452;53.368;14.658;2023-07-09T07:41:18;3.93;;;3.53;;
22571;SDS011;11452;53.368;14.658;2023-07-09T07:46:24;4.20;;;3.80;;
22571;SDS011;11452;53.368;14.658;2023-07-09T07:51:29;3.87;;;3.57;;
22571;SDS011;11452;53.368;14.658;2023-07-09T07:56:36;4.10;;;3.70;;
22571;SDS011;11452;53.368;14.658;2023-07-09T08:01:43;4.27;;;3.87;;
22571;SDS011;11452;53.368;14.658;2023-07-09T08:06:50;3.63;;;3.33;;
22571;SDS011;11452;53.368;14.658;2023-07-09T08:11:56;3.83;;;3.43;;
22571;SDS011;11452;53.368;14.658;2023-07-09T08:17:02;4.07;;;3.73;;
22571;SDS011;11452;53.368;14.658;2023-07-09T08:22:08;3.97;;;3.20;;
22571;SDS011;11452;53.368;14.658;2023-07-09T08:27:14;3.60;;;3.30;;
22571;SDS011;11452;53.368;14.658;2023-07-09T08:32:20;5.57;;;3.67;;
22571;SDS011;11452;53.368;14.658;2023-07-09T08:37:26;3.90;;;3.50;;
22571;SDS011;11452;53.368;14.658;2023-07-09T08:42:42;3.83;;;3.43;;
22571;SDS011;11452;53.368;14.658;2023-07-09T08:53:13;4.20;;;3.63;;
22571;SDS011;11452;53.368;14.658;2023-07-09T08:58:25;3.60;;;3.20;;
22571;SDS011;11452;53.368;14.658;2023-07-09T09:03:39;3.37;;;3.07;;
22571;SDS011;11452;53.368;14.658;2023-07-09T09:14:37;3.57;;;3.27;;
22571;SDS011;11452;53.368;14.658;2023-07-09T09:19:53;3.87;;;3.60;;
22571;SDS011;11452;53.368;14.658;2023-07-09T09:30:26;3.60;;;3.30;;
22571;SDS011;11452;53.368;14.658;2023-07-09T09:35:35;3.80;;;3.50;;
22571;SDS011;11452;53.368;14.658;2023-07-09T09:40:42;3.67;;;3.37;;
22571;SDS011;11452;53.368;14.658;2023-07-09T09:45:49;3.60;;;3.30;;
22571;SDS011;11452;53.368;14.658;2023-07-09T09:50:55;3.63;;;3.20;;
22571;SDS011;11452;53.368;14.658;2023-07-09T09:56:06;3.07;;;2.87;;
22571;SDS011;11452;53.368;14.658;2023-07-09T10:01:15;3.70;;;3.40;;
22571;SDS011;11452;53.368;14.658;2023-07-09T10:11:44;3.43;;;3.13;;
22571;SDS011;11452;53.368;14.658;2023-07-09T10:16:53;4.50;;;2.93;;
22571;SDS011;11452;53.368;14.658;2023-07-09T10:22:06;4.47;;;3.17;;
22571;SDS011;11452;53.368;14.658;2023-07-09T10:27:12;3.63;;;3.13;;
22571;SDS011;11452;53.368;14.658;2023-07-09T10:42:53;3.00;;;2.80;;
22571;SDS011;11452;53.368;14.658;2023-07-09T10:48:04;3.83;;;2.60;;
22571;SDS011;11452;53.368;14.658;2023-07-09T10:53:13;2.37;;;2.13;;
22571;SDS011;11452;53.368;14.658;2023-07-09T10:58:37;3.10;;;2.90;;
22571;SDS011;11452;53.368;14.658;2023-07-09T11:08:57;3.07;;;2.30;;
22571;SDS011;11452;53.368;14.658;2023-07-09T11:14:14;2.97;;;2.70;;
22571;SDS011;11452;53.368;14.658;2023-07-09T11:19:20;2.40;;;2.20;;
22571;SDS011;11452;53.368;14.658;2023-07-09T11:24:44;2.27;;;2.07;;
22571;SDS011;11452;53.368;14.658;2023-07-09T11:29:57;2.40;;;2.20;;
22571;SDS011;11452;53.368;14.658;2023-07-09T11:35:06;3.10;;;2.27;;
22571;SDS011;11452;53.368;14.658;2023-07-09T11:40:16;2.27;;;2.10;;
22571;SDS011;11452;53.368;14.658;2023-07-09T11:45:28;2.10;;;1.90;;
22571;SDS011;11452;53.368;14.658;2023-07-09T11:50:40;3.17;;;2.10;;
22571;SDS011;11452;53.368;14.658;2023-07-09T11:55:45;2.10;;;1.90;;
22571;SDS011;11452;53.368;14.658;2023-07-09T12:00:52;2.27;;;2.07;;
22571;SDS011;11452;53.368;14.658;2023-07-09T12:16:40;3.03;;;2.50;;
22571;SDS011;11452;53.368;14.658;2023-07-09T12:21:52;2.87;;;2.63;;
22571;SDS011;11452;53.368;14.658;2023-07-09T12:27:01;3.53;;;2.20;;
22571;SDS011;11452;53.368;14.658;2023-07-09T12:32:16;2.57;;;2.37;;
22571;SDS011;11452;53.368;14.658;2023-07-09T12:37:20;2.47;;;2.27;;
22571;SDS011;11452;53.368;14.658;2023-07-09T12:42:29;2.60;;;2.40;;
22571;SDS011;11452;53.368;14.658;2023-07-09T12:47:38;2.87;;;1.77;;
22571;SDS011;11452;53.368;14.658;2023-07-09T12:52:47;2.03;;;1.83;;
22571;SDS011;11452;53.368;14.658;2023-07-09T12:57:57;2.37;;;1.80;;
22571;SDS011;11452;53.368;14.658;2023-07-09T13:03:08;2.35;;;2.05;;
22571;SDS011;11452;53.368;14.658;2023-07-09T13:08:13;2.83;;;2.17;;
22571;SDS011;11452;53.368;14.658;2023-07-09T13:13:20;2.60;;;2.20;;
22571;SDS011;11452;53.368;14.658;2023-07-09T13:18:27;2.10;;;1.90;;
22571;SDS011;11452;53.368;14.658;2023-07-09T13:23:35;2.40;;;2.20;;
22571;SDS011;11452;53.368;14.658;2023-07-09T13:28:41;2.80;;;1.82;;
22571;SDS011;11452;53.368;14.658;2023-07-09T13:33:56;2.47;;;2.27;;
22571;SDS011;11452;53.368;14.658;2023-07-09T13:39:03;1.60;;;1.50;;
22571;SDS011;11452;53.368;14.658;2023-07-09T13:44:12;1.80;;;1.70;;
22571;SDS011;11452;53.368;14.658;2023-07-09T13:49:20;1.67;;;1.57;;
22571;SDS011;11452;53.368;14.658;2023-07-09T13:54:32;2.13;;;1.60;;
22571;SDS011;11452;53.368;14.658;2023-07-09T13:59:41;1.77;;;1.67;;
22571;SDS011;11452;53.368;14.658;2023-07-09T14:04:47;1.45;;;1.35;;
22571;SDS011;11452;53.368;14.658;2023-07-09T14:09:54;1.60;;;1.50;;
22571;SDS011;11452;53.368;14.658;2023-07-09T14:15:00;1.67;;;1.45;;
22571;SDS011;11452;53.368;14.658;2023-07-09T14:20:13;1.57;;;1.47;;
22571;SDS011;11452;53.368;14.658;2023-07-09T14:25:21;1.92;;;1.50;;
22571;SDS011;11452;53.368;14.658;2023-07-09T14:30:28;1.75;;;1.65;;
22571;SDS011;11452;53.368;14.658;2023-07-09T14:35:34;1.87;;;1.47;;
22571;SDS011;11452;53.368;14.658;2023-07-09T14:40:40;1.80;;;1.70;;
22571;SDS011;11452;53.368;14.658;2023-07-09T14:45:46;2.08;;;1.80;;
22571;SDS011;11452;53.368;14.658;2023-07-09T14:50:55;1.53;;;1.43;;
22571;SDS011;11452;53.368;14.658;2023-07-09T14:56:01;10.82;;;1.92;;
22571;SDS011;11452;53.368;14.658;2023-07-09T15:01:13;1.90;;;1.80;;
22571;SDS011;11452;53.368;14.658;2023-07-09T15:06:16;1.50;;;1.40;;
22571;SDS011;11452;53.368;14.658;2023-07-09T15:11:22;1.42;;;1.37;;
22571;SDS011;11452;53.368;14.658;2023-07-09T15:16:28;1.60;;;1.50;;
22571;SDS011;11452;53.368;14.658;2023-07-09T15:21:34;1.60;;;1.50;;
22571;SDS011;11452;53.368;14.658;2023-07-09T15:26:40;1.75;;;1.52;;
22571;SDS011;11452;53.368;14.658;2023-07-09T15:31:46;1.12;;;1.07;;
22571;SDS011;11452;53.368;14.658;2023-07-09T15:36:52;1.75;;;1.65;;
22571;SDS011;11452;53.368;14.658;2023-07-09T15:41:58;1.75;;;1.45;;
22571;SDS011;11452;53.368;14.658;2023-07-09T15:47:04;1.80;;;1.37;;
22571;SDS011;11452;53.368;14.658;2023-07-09T15:52:11;2.08;;;1.40;;
22571;SDS011;11452;53.368;14.658;2023-07-09T15:57:18;1.37;;;1.27;;
22571;SDS011;11452;53.368;14.658;2023-07-09T16:02:25;1.50;;;1.35;;
22571;SDS011;11452;53.368;14.658;2023-07-09T16:07:31;1.77;;;1.40;;
22571;SDS011;11452;53.368;14.658;2023-07-09T16:12:37;1.40;;;1.17;;
22571;SDS011;11452;53.368;14.658;2023-07-09T16:17:46;1.00;;;1.00;;
22571;SDS011;11452;53.368;14.658;2023-07-09T16:22:57;2.17;;;1.52;;
22571;SDS011;11452;53.368;14.658;2023-07-09T16:28:03;2.10;;;1.50;;
22571;SDS011;11452;53.368;14.658;2023-07-09T16:33:10;1.60;;;1.50;;
22571;SDS011;11452;53.368;14.658;2023-07-09T16:38:15;1.93;;;1.83;;
22571;SDS011;11452;53.368;14.658;2023-07-09T16:43:22;2.12;;;1.92;;
22571;SDS011;11452;53.368;14.658;2023-07-09T16:48:27;2.20;;;2.02;;
22571;SDS011;11452;53.368;14.658;2023-07-09T16:53:33;2.80;;;1.92;;
22571;SDS011;11452;53.368;14.658;2023-07-09T16:58:39;2.52;;;1.82;;
22571;SDS011;11452;53.368;14.658;2023-07-09T17:03:45;2.17;;;1.82;;
22571;SDS011;11452;53.368;14.658;2023-07-09T17:08:51;2.10;;;1.65;;
22571;SDS011;11452;53.368;14.658;2023-07-09T17:13:57;2.12;;;1.87;;
22571;SDS011;11452;53.368;14.658;2023-07-09T17:19:04;1.98;;;1.87;;
22571;SDS011;11452;53.368;14.658;2023-07-09T17:24:25;2.22;;;2.12;;
22571;SDS011;11452;53.368;14.658;2023-07-09T17:29:31;2.35;;;2.17;;
22571;SDS011;11452;53.368;14.658;2023-07-09T17:34:37;1.92;;;1.70;;
22571;SDS011;11452;53.368;14.658;2023-07-09T17:39:43;1.72;;;1.62;;
22571;SDS011;11452;53.368;14.658;2023-07-09T17:44:49;2.65;;;1.87;;
22571;SDS011;11452;53.368;14.658;2023-07-09T17:49:55;2.10;;;1.90;;
22571;SDS011;11452;53.368;14.658;2023-07-09T17:55:01;2.20;;;2.00;;
22571;SDS011;11452;53.368;14.658;2023-07-09T18:00:14;2.27;;;2.15;;
22571;SDS011;11452;53.368;14.658;2023-07-09T18:05:23;2.02;;;1.85;;
22571;SDS011;11452;53.368;14.658;2023-07-09T18:10:31;4.25;;;2.67;;
22571;SDS011;11452;53.368;14.658;2023-07-09T18:15:39;4.22;;;2.22;;
22571;SDS011;11452;53.368;14.658;2023-07-09T18:20:47;2.40;;;2.20;;
22571;SDS011;11452;53.368;14.658;2023-07-09T18:25:53;2.72;;;2.00;;
22571;SDS011;11452;53.368;14.658;2023-07-09T18:30:58;2.30;;;2.10;;
22571;SDS011;11452;53.368;14.658;2023-07-09T18:36:06;1.70;;;1.55;;
22571;SDS011;11452;53.368;14.658;2023-07-09T18:41:18;2.47;;;2.13;;
22571;SDS011;11452;53.368;14.658;2023-07-09T18:46:20;3.27;;;2.50;;
22571;SDS011;11452;53.368;14.658;2023-07-09T18:51:26;2.33;;;1.90;;
22571;SDS011;11452;53.368;14.658;2023-07-09T18:56:32;3.00;;;2.37;;
22571;SDS011;11452;53.368;14.658;2023-07-09T19:01:37;2.33;;;2.10;;
22571;SDS011;11452;53.368;14.658;2023-07-09T19:06:44;4.77;;;2.27;;
22571;SDS011;11452;53.368;14.658;2023-07-09T19:11:52;2.93;;;2.60;;
22571;SDS011;11452;53.368;14.658;2023-07-09T19:17:01;2.37;;;2.17;;
22571;SDS011;11452;53.368;14.658;2023-07-09T19:22:12;2.20;;;1.97;;
22571;SDS011;11452;53.368;14.658;2023-07-09T19:27:18;2.97;;;2.03;;
22571;SDS011;11452;53.368;14.658;2023-07-09T19:32:25;2.30;;;1.97;;
22571;SDS011;11452;53.368;14.658;2023-07-09T19:37:32;2.20;;;2.00;;
22571;SDS011;11452;53.368;14.658;2023-07-09T19:42:41;2.60;;;2.40;;
22571;SDS011;11452;53.368;14.658;2023-07-09T19:47:47;2.53;;;2.33;;
22571;SDS011;11452;53.368;14.658;2023-07-09T19:52:56;2.20;;;1.63;;
22571;SDS011;11452;53.368;14.658;2023-07-09T19:58:04;1.90;;;1.80;;
22571;SDS011;11452;53.368;14.658;2023-07-09T20:03:23;2.77;;;2.40;;
22571;SDS011;11452;53.368;14.658;2023-07-09T20:08:31;2.30;;;2.10;;
22571;SDS011;11452;53.368;14.658;2023-07-09T20:13:36;2.63;;;2.30;;
22571;SDS011;11452;53.368;14.658;2023-07-09T20:18:42;3.60;;;2.20;;
22571;SDS011;11452;53.368;14.658;2023-07-09T20:23:49;2.77;;;2.57;;
22571;SDS011;11452;53.368;14.658;2023-07-09T20:28:55;3.13;;;2.33;;
22571;SDS011;11452;53.368;14.658;2023-07-09T20:34:09;2.73;;;2.03;;
22571;SDS011;11452;53.368;14.658;2023-07-09T20:39:17;2.47;;;2.20;;
22571;SDS011;11452;53.368;14.658;2023-07-09T20:44:25;2.60;;;2.37;;
22571;SDS011;11452;53.368;14.658;2023-07-09T20:49:33;2.57;;;2.37;;
22571;SDS011;11452;53.368;14.658;2023-07-09T20:54:40;3.13;;;2.10;;
22571;SDS011;11452;53.368;14.658;2023-07-09T20:59:46;3.23;;;2.60;;
22571;SDS011;11452;53.368;14.658;2023-07-09T21:04:52;2.98;;;2.50;;
22571;SDS011;11452;53.368;14.658;2023-07-09T21:09:58;2.90;;;2.33;;
22571;SDS011;11452;53.368;14.658;2023-07-09T21:15:05;2.40;;;2.20;;
22571;SDS011;11452;53.368;14.658;2023-07-09T21:20:15;3.87;;;2.30;;
22571;SDS011;11452;53.368;14.658;2023-07-09T21:25:25;2.70;;;1.97;;
22571;SDS011;11452;53.368;14.658;2023-07-09T21:30:31;2.37;;;2.17;;
22571;SDS011;11452;53.368;14.658;2023-07-09T21:35:37;2.27;;;2.07;;
22571;SDS011;11452;53.368;14.658;2023-07-09T21:40:45;2.10;;;2.00;;
22571;SDS011;11452;53.368;14.658;2023-07-09T21:45:51;2.07;;;1.97;;
22571;SDS011;11452;53.368;14.658;2023-07-09T21:50:58;2.40;;;2.20;;
22571;SDS011;11452;53.368;14.658;2023-07-09T21:56:04;2.80;;;1.90;;
22571;SDS011;11452;53.368;14.658;2023-07-09T22:01:16;2.57;;;1.90;;
22571;SDS011;11452;53.368;14.658;2023-07-09T22:06:23;1.83;;;1.73;;
22571;SDS011;11452;53.368;14.658;2023-07-09T22:11:29;2.80;;;2.40;;
22571;SDS011;11452;53.368;14.658;2023-07-09T22:16:34;3.13;;;2.10;;
22571;SDS011;11452;53.368;14.658;2023-07-09T22:21:41;2.30;;;2.10;;
22571;SDS011;11452;53.368;14.658;2023-07-09T22:26:48;2.20;;;1.83;;
22571;SDS011;11452;53.368;14.658;2023-07-09T22:31:53;2.33;;;2.13;;
22571;SDS011;11452;53.368;14.658;2023-07-09T22:37:00;2.53;;;2.33;;
22571;SDS011;11452;53.368;14.658;2023-07-09T22:42:06;2.53;;;2.33;;
22571;SDS011;11452;53.368;14.658;2023-07-09T22:47:17;2.03;;;1.90;;
22571;SDS011;11452;53.368;14.658;2023-07-09T22:52:25;2.30;;;2.10;;
22571;SDS011;11452;53.368;14.658;2023-07-09T22:57:31;2.50;;;2.30;;
22571;SDS011;11452;53.368;14.658;2023-07-09T23:02:36;2.70;;;2.50;;
22571;SDS011;11452;53.368;14.658;2023-07-09T23:07:43;2.87;;;2.40;;
22571;SDS011;11452;53.368;14.658;2023-07-09T23:12:49;2.10;;;1.90;;
22571;SDS011;11452;53.368;14.658;2023-07-09T23:17:54;2.40;;;2.20;;
22571;SDS011;11452;53.368;14.658;2023-07-09T23:23:02;2.57;;;2.20;;
22571;SDS011;11452;53.368;14.658;2023-07-09T23:28:14;3.23;;;2.17;;
22571;SDS011;11452;53.368;14.658;2023-07-09T23:33:24;3.03;;;1.80;;
22571;SDS011;11452;53.368;14.658;2023-07-09T23:38:34;2.37;;;2.27;;
22571;SDS011;11452;53.368;14.658;2023-07-09T23:43:40;2.67;;;2.20;;
22571;SDS011;11452;53.368;14.658;2023-07-09T23:48:46;2.23;;;2.03;;
22571;SDS011;11452;53.368;14.658;2023-07-09T23:53:54;3.40;;;1.90;;
22571;SDS011;11452;53.368;14.658;2023-07-09T23:59:00;2.00;;;1.90;;
